sensor_id;sensor_type;location;lat;lon;timestamp;pressure;altitude;pressure_sealevel;temperature;humidity
48630;BME280;34426;52.180;4.462;2023-12-28T00:02:22;100788.34;;;10.29;100.00
48630;BME280;34426;52.180;4.462;2023-12-28T00:04:48;100767.66;;;10.30;100.00
48630;BME280;34426;52.180;4.462;2023-12-28T00:07:13;100768.28;;;10.37;100.00
48630;BME280;34426;52.180;4.462;2023-12-28T00:09:38;100753.72;;;10.40;100.00
48630;BME280;34426;52.180;4.462;2023-12-28T00:12:05;100762.69;;;10.37;100.00
48630;BME280;34426;52.180;4.462;2023-12-28T00:14:31;100757.94;;;10.38;100.00
48630;BME280;34426;52.180;4.462;2023-12-28T00:16:57;100771.06;;;10.37;100.00
48630;BME280;34426;52.180;4.462;2023-12-28T00:19:22;100787.00;;;10.37;100.00
48630;BME280;34426;52.180;4.462;2023-12-28T00:21:49;100775.28;;;10.40;100.00
48630;BME280;34426;52.180;4.462;2023-12-28T00:24:15;100759.63;;;10.39;100.00
48630;BME280;34426;52.180;4.462;2023-12-28T00:26:40;100776.66;;;10.42;100.00
48630;BME280;34426;52.180;4.462;2023-12-28T00:29:06;100771.66;;;10.39;100.00
48630;BME280;34426;52.180;4.462;2023-12-28T00:31:32;100775.56;;;10.38;100.00
48630;BME280;34426;52.180;4.462;2023-12-28T00:33:58;100766.59;;;10.36;100.00
48630;BME280;34426;52.180;4.462;2023-12-28T00:36:23;100768.81;;;10.34;100.00
48630;BME280;34426;52.180;4.462;2023-12-28T00:38:49;100764.59;;;10.31;100.00
48630;BME280;34426;52.180;4.462;2023-12-28T00:41:14;100763.22;;;10.34;100.00
48630;BME280;34426;52.180;4.462;2023-12-28T00:43:40;100771.03;;;10.32;100.00
48630;BME280;34426;52.180;4.462;2023-12-28T00:46:05;100771.88;;;10.32;100.00
48630;BME280;34426;52.180;4.462;2023-12-28T00:48:32;100761.00;;;10.36;100.00
48630;BME280;34426;52.180;4.462;2023-12-28T00:50:57;100776.41;;;10.39;100.00
48630;BME280;34426;52.180;4.462;2023-12-28T00:53:23;100774.97;;;10.36;100.00
48630;BME280;34426;52.180;4.462;2023-12-28T00:55:48;100759.84;;;10.32;100.00
48630;BME280;34426;52.180;4.462;2023-12-28T00:58:14;100763.75;;;10.31;100.00
48630;BME280;34426;52.180;4.462;2023-12-28T01:00:39;100751.16;;;10.28;100.00
48630;BME280;34426;52.180;4.462;2023-12-28T01:03:05;100767.03;;;10.23;100.00
48630;BME280;34426;52.180;4.462;2023-12-28T01:05:32;100759.78;;;10.22;100.00
48630;BME280;34426;52.180;4.462;2023-12-28T01:07:57;100775.44;;;10.23;100.00
48630;BME280;34426;52.180;4.462;2023-12-28T01:10:22;100759.19;;;10.20;100.00
48630;BME280;34426;52.180;4.462;2023-12-28T01:12:48;100764.44;;;10.16;100.00
48630;BME280;34426;52.180;4.462;2023-12-28T01:15:13;100770.84;;;10.12;100.00
48630;BME280;34426;52.180;4.462;2023-12-28T01:17:39;100773.59;;;10.07;100.00
48630;BME280;34426;52.180;4.462;2023-12-28T01:20:05;100780.53;;;10.04;100.00
48630;BME280;34426;52.180;4.462;2023-12-28T01:22:32;100766.31;;;10.06;100.00
48630;BME280;34426;52.180;4.462;2023-12-28T01:24:58;100762.94;;;10.04;100.00
48630;BME280;34426;52.180;4.462;2023-12-28T01:27:23;100756.78;;;10.01;100.00
48630;BME280;34426;52.180;4.462;2023-12-28T01:29:49;100756.78;;;10.01;100.00
48630;BME280;34426;52.180;4.462;2023-12-28T01:32:14;100774.06;;;9.98;100.00
48630;BME280;34426;52.180;4.462;2023-12-28T01:34:40;100780.75;;;9.97;100.00
48630;BME280;34426;52.180;4.462;2023-12-28T01:37:05;100774.91;;;9.94;100.00
48630;BME280;34426;52.180;4.462;2023-12-28T01:39:32;100768.47;;;9.93;100.00
48630;BME280;34426;52.180;4.462;2023-12-28T01:41:57;100773.81;;;10.00;100.00
48630;BME280;34426;52.180;4.462;2023-12-28T01:44:23;100784.41;;;9.98;100.00
48630;BME280;34426;52.180;4.462;2023-12-28T01:46:49;100799.47;;;9.97;100.00
48630;BME280;34426;52.180;4.462;2023-12-28T01:49:15;100795.03;;;9.96;100.00
48630;BME280;34426;52.180;4.462;2023-12-28T01:51:40;100805.38;;;9.95;100.00
48630;BME280;34426;52.180;4.462;2023-12-28T01:54:07;100791.66;;;9.94;100.00
48630;BME280;34426;52.180;4.462;2023-12-28T01:56:34;100783.84;;;9.96;100.00
48630;BME280;34426;52.180;4.462;2023-12-28T01:59:00;100790.25;;;9.96;100.00
48630;BME280;34426;52.180;4.462;2023-12-28T02:01:26;100789.72;;;9.99;100.00
48630;BME280;34426;52.180;4.462;2023-12-28T02:03:51;100782.44;;;9.98;100.00
48630;BME280;34426;52.180;4.462;2023-12-28T02:06:17;100782.72;;;9.97;100.00
48630;BME280;34426;52.180;4.462;2023-12-28T02:08:43;100799.22;;;9.98;100.00
48630;BME280;34426;52.180;4.462;2023-12-28T02:11:09;100800.06;;;9.99;100.00
48630;BME280;34426;52.180;4.462;2023-12-28T02:13:36;100795.03;;;10.01;100.00
48630;BME280;34426;52.180;4.462;2023-12-28T02:16:05;100793.09;;;10.01;100.00
48630;BME280;34426;52.180;4.462;2023-12-28T02:18:36;100802.06;;;10.04;100.00
48630;BME280;34426;52.180;4.462;2023-12-28T02:21:04;100790.88;;;10.04;100.00
48630;BME280;34426;52.180;4.462;2023-12-28T02:23:32;100777.16;;;10.02;100.00
48630;BME280;34426;52.180;4.462;2023-12-28T02:25:59;100798.16;;;10.05;99.49
48630;BME280;34426;52.180;4.462;2023-12-28T02:28:24;100771.91;;;10.06;99.40
48630;BME280;34426;52.180;4.462;2023-12-28T02:30:50;100780.84;;;10.08;98.27
48630;BME280;34426;52.180;4.462;2023-12-28T02:33:20;100785.34;;;10.09;98.24
48630;BME280;34426;52.180;4.462;2023-12-28T02:35:53;100790.66;;;10.10;97.38
48630;BME280;34426;52.180;4.462;2023-12-28T02:38:21;100815.03;;;10.15;97.08
48630;BME280;34426;52.180;4.462;2023-12-28T02:40:49;100784.84;;;10.17;96.78
48630;BME280;34426;52.180;4.462;2023-12-28T02:43:16;100796.59;;;10.19;97.11
48630;BME280;34426;52.180;4.462;2023-12-28T02:45:41;100784.94;;;10.22;96.16
48630;BME280;34426;52.180;4.462;2023-12-28T02:48:07;100788.88;;;10.26;96.32
48630;BME280;34426;52.180;4.462;2023-12-28T02:50:33;100808.72;;;10.24;95.89
48630;BME280;34426;52.180;4.462;2023-12-28T02:52:59;100802.81;;;10.21;96.64
48630;BME280;34426;52.180;4.462;2023-12-28T02:55:25;100805.59;;;10.21;96.18
48630;BME280;34426;52.180;4.462;2023-12-28T02:57:51;100809.25;;;10.21;95.86
48630;BME280;34426;52.180;4.462;2023-12-28T03:00:18;100797.22;;;10.21;96.09
48630;BME280;34426;52.180;4.462;2023-12-28T03:02:44;100785.19;;;10.20;96.10
48630;BME280;34426;52.180;4.462;2023-12-28T03:05:09;100788.22;;;10.19;95.96
48630;BME280;34426;52.180;4.462;2023-12-28T03:07:35;100773.47;;;10.23;95.69
48630;BME280;34426;52.180;4.462;2023-12-28T03:10:01;100794.47;;;10.26;95.63
48630;BME280;34426;52.180;4.462;2023-12-28T03:12:27;100773.78;;;10.27;95.44
48630;BME280;34426;52.180;4.462;2023-12-28T03:14:53;100766.81;;;10.29;95.16
48630;BME280;34426;52.180;4.462;2023-12-28T03:17:20;100772.72;;;10.33;94.46
48630;BME280;34426;52.180;4.462;2023-12-28T03:19:45;100774.94;;;10.31;94.93
48630;BME280;34426;52.180;4.462;2023-12-28T03:22:11;100759.81;;;10.27;94.79
48630;BME280;34426;52.180;4.462;2023-12-28T03:24:37;100762.59;;;10.27;95.02
48630;BME280;34426;52.180;4.462;2023-12-28T03:27:03;100779.94;;;10.29;94.72
48630;BME280;34426;52.180;4.462;2023-12-28T03:29:29;100766.50;;;10.26;94.88
48630;BME280;34426;52.180;4.462;2023-12-28T03:31:54;100768.19;;;10.27;95.12
48630;BME280;34426;52.180;4.462;2023-12-28T03:34:21;100760.63;;;10.22;95.27
48630;BME280;34426;52.180;4.462;2023-12-28T03:36:46;100763.34;;;10.17;95.19
48630;BME280;34426;52.180;4.462;2023-12-28T03:39:12;100761.91;;;10.15;95.38
48630;BME280;34426;52.180;4.462;2023-12-28T03:41:37;100775.56;;;10.11;95.98
48630;BME280;34426;52.180;4.462;2023-12-28T03:44:03;100764.13;;;10.13;95.53
48630;BME280;34426;52.180;4.462;2023-12-28T03:46:29;100762.50;;;10.17;95.56
48630;BME280;34426;52.180;4.462;2023-12-28T03:48:54;100764.19;;;10.18;95.54
48630;BME280;34426;52.180;4.462;2023-12-28T03:51:21;100765.88;;;10.19;95.45
48630;BME280;34426;52.180;4.462;2023-12-28T03:53:46;100777.66;;;10.21;94.71
48630;BME280;34426;52.180;4.462;2023-12-28T03:56:19;100772.63;;;10.23;95.23
48630;BME280;34426;52.180;4.462;2023-12-28T03:58:44;100763.97;;;10.24;94.69
48630;BME280;34426;52.180;4.462;2023-12-28T04:01:10;100757.28;;;10.25;94.34
48630;BME280;34426;52.180;4.462;2023-12-28T04:03:35;100770.41;;;10.25;93.73
48630;BME280;34426;52.180;4.462;2023-12-28T04:06:02;100776.31;;;10.28;94.06
48630;BME280;34426;52.180;4.462;2023-12-28T04:08:29;100776.88;;;10.30;94.08
48630;BME280;34426;52.180;4.462;2023-12-28T04:10:54;100766.81;;;10.29;93.82
48630;BME280;34426;52.180;4.462;2023-12-28T04:13:19;100766.81;;;10.29;94.00
48630;BME280;34426;52.180;4.462;2023-12-28T04:15:45;100771.56;;;10.29;93.51
48630;BME280;34426;52.180;4.462;2023-12-28T04:18:10;100757.59;;;10.29;93.70
48630;BME280;34426;52.180;4.462;2023-12-28T04:20:36;100768.50;;;10.30;93.30
48630;BME280;34426;52.180;4.462;2023-12-28T04:23:01;100767.41;;;10.31;93.90
48630;BME280;34426;52.180;4.462;2023-12-28T04:25:28;100778.88;;;10.35;92.91
48630;BME280;34426;52.180;4.462;2023-12-28T04:27:54;100784.22;;;10.37;92.50
48630;BME280;34426;52.180;4.462;2023-12-28T04:30:19;100794.00;;;10.39;92.71
48630;BME280;34426;52.180;4.462;2023-12-28T04:32:44;100786.16;;;10.41;92.28
48630;BME280;34426;52.180;4.462;2023-12-28T04:35:10;100775.00;;;10.41;92.83
48630;BME280;34426;52.180;4.462;2023-12-28T04:37:35;100779.72;;;10.41;92.12
48630;BME280;34426;52.180;4.462;2023-12-28T04:40:01;100793.72;;;10.41;91.97
48630;BME280;34426;52.180;4.462;2023-12-28T04:42:28;100789.53;;;10.43;92.24
48630;BME280;34426;52.180;4.462;2023-12-28T04:44:53;100782.25;;;10.42;92.26
48630;BME280;34426;52.180;4.462;2023-12-28T04:47:18;100794.88;;;10.45;91.88
48630;BME280;34426;52.180;4.462;2023-12-28T04:49:44;100789.00;;;10.46;92.32
48630;BME280;34426;52.180;4.462;2023-12-28T04:52:09;100779.50;;;10.47;91.67
48630;BME280;34426;52.180;4.462;2023-12-28T04:54:35;100785.66;;;10.49;91.66
48630;BME280;34426;52.180;4.462;2023-12-28T04:57:00;100791.84;;;10.51;91.09
48630;BME280;34426;52.180;4.462;2023-12-28T04:59:27;100801.06;;;10.52;91.07
48630;BME280;34426;52.180;4.462;2023-12-28T05:01:53;100764.72;;;10.52;90.90
48630;BME280;34426;52.180;4.462;2023-12-28T05:04:18;100785.66;;;10.49;91.70
48630;BME280;34426;52.180;4.462;2023-12-28T05:06:44;100779.50;;;10.47;91.24
48630;BME280;34426;52.180;4.462;2023-12-28T05:09:09;100806.94;;;10.50;90.57
48630;BME280;34426;52.180;4.462;2023-12-28T05:11:34;100766.97;;;10.55;91.12
48630;BME280;34426;52.180;4.462;2023-12-28T05:14:00;100783.47;;;10.56;90.55
48630;BME280;34426;52.180;4.462;2023-12-28T05:16:27;100783.47;;;10.56;91.00
48630;BME280;34426;52.180;4.462;2023-12-28T05:18:52;100762.22;;;10.55;90.25
48630;BME280;34426;52.180;4.462;2023-12-28T05:21:18;100773.97;;;10.57;89.96
48630;BME280;34426;52.180;4.462;2023-12-28T05:23:43;100762.25;;;10.60;89.95
48630;BME280;34426;52.180;4.462;2023-12-28T05:26:09;100772.06;;;10.63;89.86
48630;BME280;34426;52.180;4.462;2023-12-28T05:28:34;100775.69;;;10.63;90.18
48630;BME280;34426;52.180;4.462;2023-12-28T05:30:59;100772.91;;;10.63;89.75
48630;BME280;34426;52.180;4.462;2023-12-28T05:33:26;100770.09;;;10.63;89.85
48630;BME280;34426;52.180;4.462;2023-12-28T05:35:52;100773.75;;;10.64;89.77
48630;BME280;34426;52.180;4.462;2023-12-28T05:38:17;100774.88;;;10.63;90.30
48630;BME280;34426;52.180;4.462;2023-12-28T05:40:43;100768.38;;;10.57;90.10
48630;BME280;34426;52.180;4.462;2023-12-28T05:43:08;100805.84;;;10.56;90.26
48630;BME280;34426;52.180;4.462;2023-12-28T05:45:34;100776.22;;;10.55;90.39
48630;BME280;34426;52.180;4.462;2023-12-28T05:47:59;100796.06;;;10.54;90.54
48630;BME280;34426;52.180;4.462;2023-12-28T05:50:26;100795.22;;;10.53;90.48
48630;BME280;34426;52.180;4.462;2023-12-28T05:52:51;100767.78;;;10.50;90.54
48630;BME280;34426;52.180;4.462;2023-12-28T05:55:17;100771.16;;;10.52;90.76
48630;BME280;34426;52.180;4.462;2023-12-28T05:57:42;100775.41;;;10.60;89.92
48630;BME280;34426;52.180;4.462;2023-12-28T06:00:08;100779.03;;;10.60;90.38
48630;BME280;34426;52.180;4.462;2023-12-28T06:02:34;100786.31;;;10.61;90.18
48630;BME280;34426;52.180;4.462;2023-12-28T06:04:59;100777.13;;;10.66;89.35
48630;BME280;34426;52.180;4.462;2023-12-28T06:07:26;100791.69;;;10.68;89.64
48630;BME280;34426;52.180;4.462;2023-12-28T06:09:52;100815.97;;;10.62;89.42
48630;BME280;34426;52.180;4.462;2023-12-28T06:12:17;100828.53;;;10.60;90.20
48630;BME280;34426;52.180;4.462;2023-12-28T06:14:43;100823.22;;;10.58;90.43
48630;BME280;34426;52.180;4.462;2023-12-28T06:17:08;100777.59;;;10.53;90.77
48630;BME280;34426;52.180;4.462;2023-12-28T06:19:33;100815.91;;;10.52;90.84
48630;BME280;34426;52.180;4.462;2023-12-28T06:21:59;100817.59;;;10.53;90.67
48630;BME280;34426;52.180;4.462;2023-12-28T06:24:26;100828.22;;;10.56;90.50
48630;BME280;34426;52.180;4.462;2023-12-28T06:26:51;100832.19;;;10.60;90.36
48630;BME280;34426;52.180;4.462;2023-12-28T06:29:17;100833.34;;;10.64;90.18
48630;BME280;34426;52.180;4.462;2023-12-28T06:31:42;100830.25;;;10.66;90.14
48630;BME280;34426;52.180;4.462;2023-12-28T06:34:07;100809.31;;;10.69;89.75
48630;BME280;34426;52.180;4.462;2023-12-28T06:36:33;100837.84;;;10.71;89.75
48630;BME280;34426;52.180;4.462;2023-12-28T06:38:59;100820.81;;;10.72;90.03
48630;BME280;34426;52.180;4.462;2023-12-28T06:41:27;100825.25;;;10.68;90.07
48630;BME280;34426;52.180;4.462;2023-12-28T06:43:52;100808.16;;;10.64;90.19
48630;BME280;34426;52.180;4.462;2023-12-28T06:46:18;100823.78;;;10.60;90.53
48630;BME280;34426;52.180;4.462;2023-12-28T06:48:44;100839.41;;;10.56;90.78
48630;BME280;34426;52.180;4.462;2023-12-28T06:51:09;100834.38;;;10.53;91.32
48630;BME280;34426;52.180;4.462;2023-12-28T06:53:35;100853.69;;;10.55;90.68
48630;BME280;34426;52.180;4.462;2023-12-28T06:56:00;100859.25;;;10.55;90.71
48630;BME280;34426;52.180;4.462;2023-12-28T06:58:27;100841.66;;;10.54;90.89
48630;BME280;34426;52.180;4.462;2023-12-28T07:00:53;100839.13;;;10.53;90.76
48630;BME280;34426;52.180;4.462;2023-12-28T07:03:18;100846.13;;;10.55;89.94
48630;BME280;34426;52.180;4.462;2023-12-28T07:05:44;100827.13;;;10.57;89.86
48630;BME280;34426;52.180;4.462;2023-12-28T07:08:09;100846.41;;;10.54;90.15
48630;BME280;34426;52.180;4.462;2023-12-28T07:10:34;100824.28;;;10.52;90.14
48630;BME280;34426;52.180;4.462;2023-12-28T07:13:00;100833.81;;;10.56;89.72
48630;BME280;34426;52.180;4.462;2023-12-28T07:15:27;100851.13;;;10.53;90.46
48630;BME280;34426;52.180;4.462;2023-12-28T07:17:52;100848.34;;;10.53;90.30
48630;BME280;34426;52.180;4.462;2023-12-28T07:20:18;100852.00;;;10.54;90.57
48630;BME280;34426;52.180;4.462;2023-12-28T07:22:43;100864.88;;;10.55;90.73
48630;BME280;34426;52.180;4.462;2023-12-28T07:25:09;100850.03;;;10.54;90.87
48630;BME280;34426;52.180;4.462;2023-12-28T07:27:34;100855.09;;;10.57;90.44
48630;BME280;34426;52.180;4.462;2023-12-28T07:30:00;100859.00;;;10.56;91.07
48630;BME280;34426;52.180;4.462;2023-12-28T07:32:28;100869.66;;;10.59;90.52
48630;BME280;34426;52.180;4.462;2023-12-28T07:34:54;100852.84;;;10.54;90.85
48630;BME280;34426;52.180;4.462;2023-12-28T07:37:19;100874.34;;;10.54;90.71
48630;BME280;34426;52.180;4.462;2023-12-28T07:39:45;100861.50;;;10.53;90.38
48630;BME280;34426;52.180;4.462;2023-12-28T07:42:10;100872.94;;;10.51;90.70
48630;BME280;34426;52.180;4.462;2023-12-28T07:44:36;100881.88;;;10.48;91.14
48630;BME280;34426;52.180;4.462;2023-12-28T07:47:01;100874.59;;;10.47;91.20
48630;BME280;34426;52.180;4.462;2023-12-28T07:49:30;100899.75;;;10.47;91.12
48630;BME280;34426;52.180;4.462;2023-12-28T07:51:56;100872.31;;;10.44;91.07
48630;BME280;34426;52.180;4.462;2023-12-28T07:54:21;100888.25;;;10.44;90.74
48630;BME280;34426;52.180;4.462;2023-12-28T07:56:47;100896.38;;;10.45;90.77
48630;BME280;34426;52.180;4.462;2023-12-28T07:59:12;100888.81;;;10.46;90.75
48630;BME280;34426;52.180;4.462;2023-12-28T08:01:38;100904.22;;;10.48;90.89
48630;BME280;34426;52.180;4.462;2023-12-28T08:04:03;100896.38;;;10.45;91.01
48630;BME280;34426;52.180;4.462;2023-12-28T08:06:30;100900.84;;;10.46;91.22
48630;BME280;34426;52.180;4.462;2023-12-28T08:08:56;100885.53;;;10.54;90.52
48630;BME280;34426;52.180;4.462;2023-12-28T08:11:21;100896.19;;;10.57;90.25
48630;BME280;34426;52.180;4.462;2023-12-28T08:13:46;100923.31;;;10.56;90.24
48630;BME280;34426;52.180;4.462;2023-12-28T08:16:12;100914.34;;;10.54;90.43
48630;BME280;34426;52.180;4.462;2023-12-28T08:18:37;100927.22;;;10.55;90.31
48630;BME280;34426;52.180;4.462;2023-12-28T08:21:03;100905.69;;;10.56;90.69
48630;BME280;34426;52.180;4.462;2023-12-28T08:23:30;100915.47;;;10.53;90.79
48630;BME280;34426;52.180;4.462;2023-12-28T08:25:55;100901.44;;;10.48;90.92
48630;BME280;34426;52.180;4.462;2023-12-28T08:28:21;100920.44;;;10.46;90.81
48630;BME280;34426;52.180;4.462;2023-12-28T08:30:46;100913.69;;;10.42;91.22
48630;BME280;34426;52.180;4.462;2023-12-28T08:33:12;100924.03;;;10.42;91.17
48630;BME280;34426;52.180;4.462;2023-12-28T08:35:37;100936.63;;;10.44;90.88
48630;BME280;34426;52.180;4.462;2023-12-28T08:38:03;100924.91;;;10.47;91.06
48630;BME280;34426;52.180;4.462;2023-12-28T08:40:30;100927.97;;;10.46;91.15
48630;BME280;34426;52.180;4.462;2023-12-28T08:42:55;100942.22;;;10.44;90.82
48630;BME280;34426;52.180;4.462;2023-12-28T08:45:21;100929.34;;;10.43;91.43
48630;BME280;34426;52.180;4.462;2023-12-28T08:47:46;100929.88;;;10.40;92.29
48630;BME280;34426;52.180;4.462;2023-12-28T08:50:11;100940.25;;;10.40;92.09
48630;BME280;34426;52.180;4.462;2023-12-28T08:52:37;100935.47;;;10.40;92.45
48630;BME280;34426;52.180;4.462;2023-12-28T08:55:04;100934.34;;;10.36;92.43
48630;BME280;34426;52.180;4.462;2023-12-28T08:57:31;100945.00;;;10.39;92.52
48630;BME280;34426;52.180;4.462;2023-12-28T08:59:57;100942.22;;;10.39;93.48
48630;BME280;34426;52.180;4.462;2023-12-28T09:02:22;100938.25;;;10.35;94.07
48630;BME280;34426;52.180;4.462;2023-12-28T09:04:47;100964.53;;;10.34;94.52
48630;BME280;34426;52.180;4.462;2023-12-28T09:07:13;100950.28;;;10.36;94.50
48630;BME280;34426;52.180;4.462;2023-12-28T09:09:38;100949.44;;;10.35;93.85
48630;BME280;34426;52.180;4.462;2023-12-28T09:12:04;100970.72;;;10.41;93.98
48630;BME280;34426;52.180;4.462;2023-12-28T09:14:31;100978.00;;;10.42;93.08
48630;BME280;34426;52.180;4.462;2023-12-28T09:16:57;100964.38;;;10.51;93.13
48630;BME280;34426;52.180;4.462;2023-12-28T09:19:22;100984.00;;;10.56;92.78
48630;BME280;34426;52.180;4.462;2023-12-28T09:21:47;100974.81;;;10.60;92.01
48630;BME280;34426;52.180;4.462;2023-12-28T09:24:13;100948.53;;;10.61;91.28
48630;BME280;34426;52.180;4.462;2023-12-28T09:26:39;100967.59;;;10.64;91.75
48630;BME280;34426;52.180;4.462;2023-12-28T09:29:04;100996.16;;;10.66;91.04
48630;BME280;34426;52.180;4.462;2023-12-28T09:31:31;100987.75;;;10.66;91.25
48630;BME280;34426;52.180;4.462;2023-12-28T09:33:57;100955.09;;;10.72;90.50
48630;BME280;34426;52.180;4.462;2023-12-28T09:36:22;100983.91;;;10.73;90.31
48630;BME280;34426;52.180;4.462;2023-12-28T09:38:49;100980.00;;;10.74;90.32
48630;BME280;34426;52.180;4.462;2023-12-28T09:41:15;100987.81;;;10.72;91.31
48630;BME280;34426;52.180;4.462;2023-12-28T09:43:45;100978.31;;;10.73;91.24
48630;BME280;34426;52.180;4.462;2023-12-28T09:46:11;100989.19;;;10.69;91.65
48630;BME280;34426;52.180;4.462;2023-12-28T09:48:38;100986.34;;;10.64;91.68
48630;BME280;34426;52.180;4.462;2023-12-28T09:51:03;100982.97;;;10.62;92.79
48630;BME280;34426;52.180;4.462;2023-12-28T09:53:29;100994.34;;;10.55;92.92
48630;BME280;34426;52.180;4.462;2023-12-28T09:55:54;100999.31;;;10.48;93.94
48630;BME280;34426;52.180;4.462;2023-12-28T09:58:21;101012.09;;;10.39;95.22
48630;BME280;34426;52.180;4.462;2023-12-28T10:00:48;101017.06;;;10.32;97.06
48630;BME280;34426;52.180;4.462;2023-12-28T10:03:14;100980.06;;;10.25;98.41
48630;BME280;34426;52.180;4.462;2023-12-28T10:05:42;100994.22;;;10.18;99.49
48630;BME280;34426;52.180;4.462;2023-12-28T10:08:08;100993.25;;;10.08;100.00
48630;BME280;34426;52.180;4.462;2023-12-28T10:10:33;100989.34;;;10.09;100.00
48630;BME280;34426;52.180;4.462;2023-12-28T10:12:59;100986.09;;;10.17;98.79
48630;BME280;34426;52.180;4.462;2023-12-28T10:15:25;100989.63;;;10.29;96.72
48630;BME280;34426;52.180;4.462;2023-12-28T10:17:51;100986.34;;;10.37;95.32
48630;BME280;34426;52.180;4.462;2023-12-28T10:20:17;101000.94;;;10.44;94.50
48630;BME280;34426;52.180;4.462;2023-12-28T10:22:44;100992.63;;;10.49;93.73
48630;BME280;34426;52.180;4.462;2023-12-28T10:25:09;100983.16;;;10.55;92.68
48630;BME280;34426;52.180;4.462;2023-12-28T10:27:38;100993.03;;;10.63;92.46
48630;BME280;34426;52.180;4.462;2023-12-28T10:30:04;100976.84;;;10.65;91.10
48630;BME280;34426;52.180;4.462;2023-12-28T10:32:30;100987.22;;;10.70;90.95
48630;BME280;34426;52.180;4.462;2023-12-28T10:34:55;100993.72;;;10.75;90.05
48630;BME280;34426;52.180;4.462;2023-12-28T10:37:21;100996.25;;;10.77;89.62
48630;BME280;34426;52.180;4.462;2023-12-28T10:39:48;100997.09;;;10.77;89.40
48630;BME280;34426;52.180;4.462;2023-12-28T10:42:18;100969.44;;;10.81;89.09
48630;BME280;34426;52.180;4.462;2023-12-28T10:44:49;100983.44;;;10.86;88.49
48630;BME280;34426;52.180;4.462;2023-12-28T10:47:19;100980.09;;;10.89;88.93
48630;BME280;34426;52.180;4.462;2023-12-28T10:49:48;100984.28;;;10.86;87.96
48630;BME280;34426;52.180;4.462;2023-12-28T10:52:16;100985.97;;;10.87;88.49
48630;BME280;34426;52.180;4.462;2023-12-28T10:54:45;100989.88;;;10.86;87.74
48630;BME280;34426;52.180;4.462;2023-12-28T10:57:22;100973.13;;;10.91;88.50
48630;BME280;34426;52.180;4.462;2023-12-28T10:59:54;100996.94;;;10.94;88.04
48630;BME280;34426;52.180;4.462;2023-12-28T11:02:28;100987.69;;;10.93;88.44
48630;BME280;34426;52.180;4.462;2023-12-28T11:04:59;100981.84;;;10.95;88.52
48630;BME280;34426;52.180;4.462;2023-12-28T11:07:26;100995.25;;;10.93;88.05
48630;BME280;34426;52.180;4.462;2023-12-28T11:09:53;100987.44;;;10.95;87.99
48630;BME280;34426;52.180;4.462;2023-12-28T11:12:21;101000.00;;;10.92;87.52
48630;BME280;34426;52.180;4.462;2023-12-28T11:14:47;100982.69;;;10.95;88.11
48630;BME280;34426;52.180;4.462;2023-12-28T11:17:15;100962.78;;;10.92;87.78
48630;BME280;34426;52.180;4.462;2023-12-28T11:19:41;100994.72;;;10.96;87.64
48630;BME280;34426;52.180;4.462;2023-12-28T11:22:07;100995.56;;;10.96;87.93
48630;BME280;34426;52.180;4.462;2023-12-28T11:24:33;100988.53;;;10.94;88.93
48630;BME280;34426;52.180;4.462;2023-12-28T11:26:59;100981.22;;;10.88;88.68
48630;BME280;34426;52.180;4.462;2023-12-28T11:29:29;100987.34;;;10.85;89.41
48630;BME280;34426;52.180;4.462;2023-12-28T11:31:57;100997.41;;;10.81;89.48
48630;BME280;34426;52.180;4.462;2023-12-28T11:34:25;100991.19;;;10.74;89.85
48630;BME280;34426;52.180;4.462;2023-12-28T11:36:53;100976.63;;;10.72;90.29
48630;BME280;34426;52.180;4.462;2023-12-28T11:39:30;100978.84;;;10.70;90.40
48630;BME280;34426;52.180;4.462;2023-12-28T11:41:59;100977.72;;;10.71;90.01
48630;BME280;34426;52.180;4.462;2023-12-28T11:44:27;100964.84;;;10.70;89.52
48630;BME280;34426;52.180;4.462;2023-12-28T11:46:52;100967.38;;;10.71;90.02
48630;BME280;34426;52.180;4.462;2023-12-28T11:49:25;100967.69;;;10.75;89.90
48630;BME280;34426;52.180;4.462;2023-12-28T11:51:55;100969.44;;;10.81;88.84
48630;BME280;34426;52.180;4.462;2023-12-28T11:54:21;100976.16;;;10.85;88.45
48630;BME280;34426;52.180;4.462;2023-12-28T11:56:46;100953.22;;;10.88;88.26
48630;BME280;34426;52.180;4.462;2023-12-28T11:59:12;100952.16;;;10.94;87.78
48630;BME280;34426;52.180;4.462;2023-12-28T12:01:38;100954.69;;;10.95;87.20
48630;BME280;34426;52.180;4.462;2023-12-28T12:04:06;100968.47;;;11.02;86.95
48630;BME280;34426;52.180;4.462;2023-12-28T12:06:31;100939.06;;;10.99;87.40
48630;BME280;34426;52.180;4.462;2023-12-28T12:08:56;100935.69;;;10.97;87.40
48630;BME280;34426;52.180;4.462;2023-12-28T12:11:22;100944.13;;;11.03;87.87
48630;BME280;34426;52.180;4.462;2023-12-28T12:13:50;100940.50;;;11.07;86.22
48630;BME280;34426;52.180;4.462;2023-12-28T12:16:15;100961.00;;;11.13;86.28
48630;BME280;34426;52.180;4.462;2023-12-28T12:18:43;100962.38;;;11.10;85.52
48630;BME280;34426;52.180;4.462;2023-12-28T12:21:08;100936.63;;;11.13;85.09
48630;BME280;34426;52.180;4.462;2023-12-28T12:23:34;100954.00;;;11.15;85.03
48630;BME280;34426;52.180;4.462;2023-12-28T12:25:59;100934.72;;;11.19;85.01
48630;BME280;34426;52.180;4.462;2023-12-28T12:28:25;100935.25;;;11.16;84.83
48630;BME280;34426;52.180;4.462;2023-12-28T12:30:51;100915.94;;;11.14;85.11
48630;BME280;34426;52.180;4.462;2023-12-28T12:33:18;100919.53;;;11.10;84.42
48630;BME280;34426;52.180;4.462;2023-12-28T12:35:45;100917.59;;;11.10;84.85
48630;BME280;34426;52.180;4.462;2023-12-28T12:38:11;100910.28;;;11.09;85.27
48630;BME280;34426;52.180;4.462;2023-12-28T12:40:36;100906.69;;;11.14;85.35
48630;BME280;34426;52.180;4.462;2023-12-28T12:43:02;100910.91;;;11.16;85.30